createdAt,value
2018-10-11T00:01:06.488Z,16.35
2018-10-11T00:03:34.896Z,16.28
2018-10-11T00:06:03.241Z,16.27
2018-10-11T00:08:31.624Z,16.29
2018-10-11T00:10:59.961Z,16.24
2018-10-11T00:13:28.350Z,16.30
2018-10-11T00:15:56.718Z,16.08
2018-10-11T00:18:25.077Z,16.09
2018-10-11T00:20:53.437Z,15.95
2018-10-11T00:23:21.813Z,16.01
2018-10-11T00:25:50.153Z,15.92
2018-10-11T00:28:18.503Z,15.93
2018-10-11T00:30:46.931Z,15.98
2018-10-11T00:33:15.216Z,15.97
2018-10-11T00:35:43.577Z,15.96
2018-10-11T00:38:11.941Z,15.88
2018-10-11T00:40:40.272Z,15.70
2018-10-11T00:43:08.621Z,15.67
2018-10-11T00:45:37.304Z,15.59
2018-10-11T00:48:06.713Z,15.47
2018-10-11T00:50:35.063Z,15.48
2018-10-11T00:53:03.417Z,15.40
2018-10-11T00:55:31.884Z,15.45
2018-10-11T00:58:00.226Z,15.30
2018-10-11T01:00:28.565Z,15.36
2018-10-11T01:02:56.909Z,15.31
2018-10-11T01:05:25.244Z,15.23
2018-10-11T01:07:57.293Z,15.12
2018-10-11T01:10:25.632Z,15.01
2018-10-11T01:12:54.068Z,14.91
2018-10-11T01:15:22.397Z,14.91
2018-10-11T01:17:50.733Z,14.83
2018-10-11T01:20:19.058Z,14.76
2018-10-11T01:22:47.837Z,14.82
2018-10-11T01:25:16.217Z,14.69
2018-10-11T01:27:44.560Z,14.65
2018-10-11T01:30:13.034Z,14.58
2018-10-11T01:32:41.274Z,14.51
2018-10-11T01:35:09.597Z,14.42
2018-10-11T01:37:37.992Z,14.46
2018-10-11T01:40:06.464Z,14.44
2018-10-11T01:42:34.925Z,14.44
2018-10-11T01:45:03.265Z,14.40
2018-10-11T01:47:31.704Z,14.25
2018-10-11T01:50:00.028Z,14.22
2018-10-11T01:52:29.374Z,14.21
2018-10-11T01:54:57.731Z,14.19
2018-10-11T01:57:26.085Z,14.09
2018-10-11T01:59:54.421Z,13.99
2018-10-11T02:02:22.781Z,13.87
2018-10-11T02:04:51.108Z,13.84
2018-10-11T02:07:19.478Z,13.80
2018-10-11T02:09:47.806Z,13.89
2018-10-11T02:12:16.173Z,13.83
2018-10-11T02:14:44.497Z,13.73
2018-10-11T02:17:12.835Z,13.73
2018-10-11T02:19:41.177Z,13.72
2018-10-11T02:22:10.614Z,13.72
2018-10-11T02:24:41.081Z,13.64
2018-10-11T02:27:09.451Z,13.59
2018-10-11T02:29:39.125Z,13.52
2018-10-11T02:32:07.693Z,13.57
2018-10-11T02:34:35.964Z,13.45
2018-10-11T02:37:04.281Z,13.47
2018-10-11T02:39:32.614Z,13.51
2018-10-11T02:42:00.932Z,13.54
2018-10-11T02:44:29.260Z,13.58
2018-10-11T02:46:57.597Z,13.72
2018-10-11T02:49:26.013Z,13.64
2018-10-11T02:51:54.377Z,13.60
2018-10-11T02:54:22.781Z,13.63
2018-10-11T02:56:55.299Z,13.67
2018-10-11T02:59:31.592Z,13.64
2018-10-11T03:02:00.760Z,13.65
2018-10-11T03:04:29.834Z,13.65
2018-10-11T03:06:58.872Z,13.66
2018-10-11T03:09:27.533Z,13.66
2018-10-11T03:11:55.973Z,13.69
2018-10-11T03:14:24.660Z,13.62
2018-10-11T03:16:53.413Z,13.61
2018-10-11T03:19:21.789Z,13.61
2018-10-11T03:21:50.161Z,13.57
2018-10-11T03:24:18.534Z,13.47
2018-10-11T03:26:46.880Z,13.53
2018-10-11T03:29:15.237Z,13.43
2018-10-11T03:31:43.580Z,13.43
2018-10-11T03:34:11.948Z,13.47
2018-10-11T03:36:40.409Z,13.45
2018-10-11T03:39:08.960Z,13.45
2018-10-11T03:41:37.304Z,13.43
2018-10-11T03:44:05.672Z,13.38
2018-10-11T03:46:35.013Z,13.45
2018-10-11T03:49:03.377Z,13.45
2018-10-11T03:51:31.750Z,13.50
2018-10-11T03:54:00.501Z,13.49
2018-10-11T03:56:28.904Z,13.53
2018-10-11T03:58:58.988Z,13.58
2018-10-11T04:01:27.382Z,13.59
2018-10-11T04:03:56.458Z,13.66
2018-10-11T04:06:25.885Z,13.72
2018-10-11T04:08:54.754Z,13.76
2018-10-11T04:11:25.276Z,13.72
2018-10-11T04:13:53.611Z,13.70
2018-10-11T04:16:21.940Z,13.73
2018-10-11T04:18:50.409Z,13.77
2018-10-11T04:21:18.767Z,13.88
2018-10-11T04:23:47.096Z,13.87
2018-10-11T04:26:15.522Z,13.87
2018-10-11T04:28:44.953Z,14.03
2018-10-11T04:31:13.281Z,14.06
2018-10-11T04:33:41.664Z,14.00
2018-10-11T04:36:10.090Z,14.00
2018-10-11T04:38:38.401Z,14.03
2018-10-11T04:41:07.373Z,13.96
2018-10-11T04:43:35.707Z,14.00
2018-10-11T04:46:04.062Z,14.00
2018-10-11T04:48:32.434Z,13.96
2018-10-11T04:51:01.851Z,13.91
2018-10-11T04:53:30.181Z,14.05
2018-10-11T04:55:58.565Z,14.02
2018-10-11T04:58:26.915Z,14.03
2018-10-11T05:00:55.293Z,13.99
2018-10-11T05:03:23.671Z,14.12
2018-10-11T05:05:52.031Z,14.12
2018-10-11T05:08:20.385Z,14.13
2018-10-11T05:10:48.840Z,14.04
2018-10-11T05:13:17.694Z,14.03
2018-10-11T05:15:46.047Z,13.99
2018-10-11T05:18:17.013Z,14.03
2018-10-11T05:20:45.529Z,14.01
2018-10-11T05:23:14.901Z,14.07
2018-10-11T05:25:43.337Z,14.04
2018-10-11T05:28:13.757Z,13.92
2018-10-11T05:30:44.638Z,13.95
2018-10-11T05:33:13.549Z,13.91
2018-10-11T05:35:41.902Z,13.85
2018-10-11T05:38:10.264Z,13.84
2018-10-11T05:40:38.632Z,13.95
2018-10-11T05:43:07.060Z,14.07
2018-10-11T05:45:36.368Z,14.04
2018-10-11T05:48:04.773Z,14.05
2018-10-11T05:50:33.469Z,13.99
2018-10-11T05:53:01.884Z,14.00
2018-10-11T05:55:30.317Z,14.09
2018-10-11T05:57:58.721Z,14.10
2018-10-11T06:00:27.145Z,14.16
2018-10-11T06:03:01.057Z,14.11
2018-10-11T06:05:31.129Z,14.14
2018-10-11T06:08:00.647Z,14.16
2018-10-11T06:10:31.611Z,14.22
2018-10-11T06:13:01.091Z,14.08
2018-10-11T06:15:29.636Z,14.31
2018-10-11T06:17:58.051Z,14.14
2018-10-11T06:20:26.429Z,14.11
2018-10-11T06:22:54.769Z,14.24
2018-10-11T06:25:25.141Z,14.28
2018-10-11T06:27:53.553Z,14.39
2018-10-11T06:30:21.962Z,14.39
2018-10-11T06:32:50.468Z,14.39
2018-10-11T06:35:18.925Z,14.53
2018-10-11T06:37:47.284Z,14.60
2018-10-11T06:40:15.652Z,14.70
2018-10-11T06:42:44.843Z,14.70
2018-10-11T06:45:14.432Z,14.73
2018-10-11T06:47:45.453Z,14.85
2018-10-11T06:50:14.943Z,14.80
2018-10-11T06:52:43.308Z,14.74
2018-10-11T06:55:11.703Z,14.71
2018-10-11T06:57:40.041Z,14.78
2018-10-11T07:00:08.397Z,15.04
2018-10-11T07:02:36.750Z,14.93
2018-10-11T07:05:05.151Z,15.14
2018-10-11T07:07:33.516Z,15.26
2018-10-11T07:10:01.905Z,15.02
2018-10-11T07:12:31.300Z,15.17
2018-10-11T07:14:59.660Z,14.94
2018-10-11T07:17:28.033Z,15.31
2018-10-11T07:19:56.392Z,15.53
2018-10-11T07:22:24.748Z,15.43
2018-10-11T07:24:53.148Z,15.40
2018-10-11T07:27:21.504Z,15.54
2018-10-11T07:29:50.882Z,15.79
2018-10-11T07:32:24.833Z,15.69
2018-10-11T07:34:53.322Z,15.95
2018-10-11T07:37:21.632Z,15.83
2018-10-11T07:39:50.756Z,15.98
2018-10-11T07:42:19.142Z,15.97
2018-10-11T07:44:47.574Z,16.21
2018-10-11T07:47:15.978Z,16.23
2018-10-11T07:49:44.349Z,16.14
2018-10-11T07:52:12.740Z,16.21
2018-10-11T07:54:41.119Z,16.35
2018-10-11T07:57:09.497Z,16.68
2018-10-11T07:59:37.860Z,16.48
2018-10-11T08:02:06.268Z,16.44
2018-10-11T08:04:34.627Z,16.58
2018-10-11T08:07:03.083Z,16.74
2018-10-11T08:09:31.486Z,16.85
2018-10-11T08:12:00.091Z,16.84
2018-10-11T08:14:29.306Z,16.69
2018-10-11T08:16:57.799Z,17.01
2018-10-11T08:19:26.381Z,17.16
2018-10-11T08:21:54.402Z,17.16
2018-10-11T08:24:22.815Z,17.18
2018-10-11T08:26:51.210Z,17.15
2018-10-11T08:29:19.519Z,17.31
2018-10-11T08:31:49.064Z,17.41
2018-10-11T08:34:17.309Z,17.56
2018-10-11T08:36:46.753Z,17.61
2018-10-11T08:39:15.168Z,17.66
2018-10-11T08:41:43.548Z,17.89
2018-10-11T08:44:13.393Z,17.51
2018-10-11T08:46:42.912Z,17.89
2018-10-11T08:49:11.374Z,17.94
2018-10-11T08:51:39.748Z,17.45
2018-10-11T08:54:15.336Z,17.66
2018-10-11T08:56:43.785Z,17.64
2018-10-11T08:59:13.337Z,18.00
2018-10-11T09:01:41.647Z,18.06
2018-10-11T09:04:10.092Z,17.91
2018-10-11T09:06:38.411Z,17.98
2018-10-11T09:09:09.850Z,17.64
2018-10-11T09:11:38.307Z,17.65
2018-10-11T09:14:06.811Z,18.02
2018-10-11T09:16:35.533Z,18.07
2018-10-11T09:19:04.054Z,18.34
2018-10-11T09:21:33.050Z,18.50
2018-10-11T09:24:01.422Z,18.30
2018-10-11T09:26:29.861Z,18.18
2018-10-11T09:28:58.264Z,18.80
2018-10-11T09:31:26.663Z,18.55
2018-10-11T09:33:55.061Z,18.66
2018-10-11T09:36:24.558Z,18.96
2018-10-11T09:38:53.542Z,19.11
2018-10-11T09:41:22.012Z,18.68
2018-10-11T09:43:50.361Z,19.01
2018-10-11T09:46:18.805Z,19.19
2018-10-11T09:48:47.208Z,19.21
2018-10-11T09:51:15.549Z,18.69
2018-10-11T09:53:43.965Z,18.83
2018-10-11T09:56:12.340Z,19.17
2018-10-11T09:58:40.716Z,19.06
2018-10-11T10:01:16.524Z,19.21
2018-10-11T10:03:44.913Z,19.20
2018-10-11T10:06:13.293Z,19.01
2018-10-11T10:08:41.668Z,19.17
2018-10-11T10:11:10.081Z,19.55
2018-10-11T10:13:38.450Z,19.82
2018-10-11T10:16:06.829Z,19.64
2018-10-11T10:18:35.181Z,19.61
2018-10-11T10:21:03.614Z,19.90
2018-10-11T10:23:31.945Z,19.94
2018-10-11T10:26:00.321Z,19.99
2018-10-11T10:28:28.707Z,20.08
2018-10-11T10:30:58.113Z,20.06
2018-10-11T10:33:26.464Z,20.02
2018-10-11T10:35:54.834Z,20.12
2018-10-11T10:38:25.234Z,19.71
2018-10-11T10:40:53.657Z,19.98
2018-10-11T10:43:22.021Z,19.71
2018-10-11T10:45:50.406Z,20.03
2018-10-11T10:48:20.783Z,19.94
2018-10-11T10:50:49.138Z,20.08
2018-10-11T10:53:17.572Z,19.98
2018-10-11T10:55:45.959Z,20.18
2018-10-11T10:58:14.342Z,20.17
2018-10-11T11:00:42.860Z,20.22
2018-10-11T11:03:11.228Z,20.61
2018-10-11T11:05:39.629Z,20.88
2018-10-11T11:08:08.089Z,20.80
2018-10-11T11:10:36.485Z,20.67
2018-10-11T11:13:05.991Z,20.68
2018-10-11T11:15:34.389Z,21.04
2018-10-11T11:18:03.785Z,20.96
2018-10-11T11:20:32.141Z,20.80
2018-10-11T11:23:00.541Z,20.85
2018-10-11T11:25:30.893Z,20.67
2018-10-11T11:27:59.281Z,20.74
2018-10-11T11:30:27.751Z,20.81
2018-10-11T11:32:56.169Z,20.69
2018-10-11T11:35:24.514Z,20.88
2018-10-11T11:37:53.865Z,20.93
2018-10-11T11:40:22.221Z,20.93
2018-10-11T11:42:50.598Z,21.14
2018-10-11T11:45:18.943Z,20.87
2018-10-11T11:47:47.281Z,21.13
2018-10-11T11:50:15.624Z,20.97
2018-10-11T11:52:44.924Z,20.82
2018-10-11T11:55:14.305Z,20.96
2018-10-11T11:57:42.732Z,20.81
2018-10-11T12:00:12.175Z,20.96
2018-10-11T12:02:44.637Z,20.99
2018-10-11T12:05:13.098Z,21.08
2018-10-11T12:07:42.068Z,21.15
2018-10-11T12:10:10.477Z,21.18
2018-10-11T12:13:12.609Z,21.30
2018-10-11T12:15:42.337Z,20.97
2018-10-11T12:18:11.622Z,21.23
2018-10-11T12:20:41.150Z,21.24
2018-10-11T12:23:10.528Z,21.38
2018-10-11T12:25:38.986Z,21.49
2018-10-11T12:28:07.767Z,21.49
2018-10-11T12:30:36.431Z,21.59
2018-10-11T12:33:06.525Z,21.44
2018-10-11T12:35:35.938Z,21.30
2018-10-11T12:38:04.305Z,21.24
2018-10-11T12:40:32.701Z,21.28
2018-10-11T12:43:01.097Z,21.61
2018-10-11T12:45:29.477Z,21.59
2018-10-11T12:47:57.845Z,21.77
2018-10-11T12:50:26.274Z,21.71
2018-10-11T12:52:54.618Z,21.83
2018-10-11T12:55:24.017Z,21.93
2018-10-11T12:57:53.389Z,21.88
2018-10-11T13:00:21.768Z,21.83
2018-10-11T13:02:50.221Z,22.06
2018-10-11T13:05:18.540Z,22.09
2018-10-11T13:07:48.966Z,22.72
2018-10-11T13:10:17.330Z,22.80
2018-10-11T13:12:45.685Z,24.57
2018-10-11T13:15:14.296Z,26.02
2018-10-11T13:17:43.976Z,25.93
2018-10-11T13:20:11.888Z,25.83
2018-10-11T13:22:40.308Z,24.84
2018-10-11T13:25:10.688Z,23.90
2018-10-11T13:27:40.121Z,23.62
2018-10-11T13:30:09.616Z,23.00
2018-10-11T13:32:37.964Z,22.76
2018-10-11T13:35:07.076Z,22.48
2018-10-11T13:37:35.336Z,22.62
2018-10-11T13:40:03.855Z,22.34
2018-10-11T13:42:32.221Z,22.17
2018-10-11T13:45:01.599Z,22.28
2018-10-11T13:47:29.958Z,22.35
2018-10-11T13:49:59.314Z,22.40
2018-10-11T13:52:27.677Z,22.44
2018-10-11T13:54:56.101Z,22.23
2018-10-11T13:57:26.845Z,22.35
2018-10-11T13:59:52.949Z,22.53
2018-10-11T14:02:21.337Z,22.54
2018-10-11T14:04:51.827Z,22.49
2018-10-11T14:07:20.238Z,22.32
2018-10-11T14:09:48.623Z,22.50
2018-10-11T14:12:16.996Z,22.42
2018-10-11T14:14:45.345Z,22.37
2018-10-11T14:17:13.701Z,22.60
2018-10-11T14:19:48.047Z,22.58
2018-10-11T14:22:16.397Z,22.70
2018-10-11T14:24:44.769Z,22.64
2018-10-11T14:27:13.148Z,22.62
2018-10-11T14:29:41.533Z,22.82
2018-10-11T14:32:09.917Z,22.70
2018-10-11T14:34:39.301Z,22.78
2018-10-11T14:37:07.842Z,22.77
2018-10-11T14:39:36.057Z,22.78
2018-10-11T14:42:04.475Z,22.76
2018-10-11T14:44:32.812Z,22.62
2018-10-11T14:47:01.200Z,22.62
2018-10-11T14:49:29.598Z,22.94
2018-10-11T14:51:57.960Z,23.61
2018-10-11T14:54:26.341Z,23.51
2018-10-11T14:56:56.742Z,23.40
2018-10-11T14:59:25.110Z,23.64
2018-10-11T15:01:53.449Z,23.75
2018-10-11T15:04:21.807Z,23.23
2018-10-11T15:06:50.178Z,23.15
2018-10-11T15:09:18.573Z,22.84
2018-10-11T15:11:46.993Z,23.73
2018-10-11T15:14:15.320Z,25.88
2018-10-11T15:16:43.749Z,29.26
2018-10-11T15:19:12.105Z,32.03
2018-10-11T15:21:40.465Z,33.51
2018-10-11T15:24:09.221Z,33.99
2018-10-11T15:26:39.667Z,34.49
2018-10-11T15:29:09.067Z,34.15
2018-10-11T15:31:37.461Z,31.13
2018-10-11T15:34:05.824Z,28.87
2018-10-11T15:36:34.197Z,26.04
2018-10-11T15:39:04.282Z,24.71
2018-10-11T15:41:32.641Z,23.92
2018-10-11T15:44:00.988Z,23.23
2018-10-11T15:46:29.401Z,22.68
2018-10-11T15:48:57.749Z,22.26
2018-10-11T15:51:26.195Z,21.99
2018-10-11T15:53:54.586Z,21.84
2018-10-11T15:56:22.920Z,21.66
2018-10-11T15:58:51.300Z,21.73
2018-10-11T16:01:19.695Z,21.39
2018-10-11T16:03:48.108Z,21.10
2018-10-11T16:06:16.568Z,20.88
2018-10-11T16:08:44.928Z,20.79
2018-10-11T16:11:13.272Z,20.61
2018-10-11T16:13:41.714Z,20.52
2018-10-11T16:16:10.032Z,20.22
2018-10-11T16:18:38.418Z,20.07
2018-10-11T16:21:09.425Z,20.00
2018-10-11T16:23:37.809Z,19.95
2018-10-11T16:27:09.251Z,19.85
2018-10-11T16:29:38.668Z,19.60
2018-10-11T16:32:07.076Z,19.61
2018-10-11T16:37:26.178Z,19.31
2018-10-11T16:39:54.554Z,19.21
2018-10-11T16:42:22.941Z,19.14
2018-10-11T16:44:51.357Z,19.05
2018-10-11T16:47:19.745Z,18.93
2018-10-11T16:49:48.212Z,18.81
2018-10-11T16:52:16.520Z,18.70
2018-10-11T16:54:45.352Z,18.52
2018-10-11T16:57:15.128Z,18.47
2018-10-11T16:59:45.017Z,18.46
2018-10-11T17:02:13.629Z,18.36
2018-10-11T17:04:42.016Z,18.29
2018-10-11T17:07:10.401Z,18.26
2018-10-11T17:09:38.803Z,18.24
2018-10-11T17:12:07.153Z,18.17
2018-10-11T17:14:35.553Z,18.13
2018-10-11T17:17:03.928Z,18.10
2018-10-11T17:19:32.319Z,18.06
2018-10-11T17:22:00.786Z,18.02
2018-10-11T17:24:33.092Z,17.96
2018-10-11T17:27:01.804Z,17.93
2018-10-11T17:29:30.239Z,17.85
2018-10-11T17:31:58.964Z,17.80
2018-10-11T17:34:27.458Z,17.71
2018-10-11T17:36:55.809Z,17.66
2018-10-11T17:39:24.165Z,17.59
2018-10-11T17:41:52.539Z,17.56
2018-10-11T17:44:20.916Z,17.54
2018-10-11T17:46:49.308Z,17.48
2018-10-11T17:49:17.689Z,17.45
2018-10-11T17:51:46.084Z,17.38
2018-10-11T17:54:14.464Z,17.42
2018-10-11T17:56:42.947Z,17.41
2018-10-11T17:59:11.326Z,17.37
2018-10-11T18:01:39.709Z,17.39
2018-10-11T18:04:08.166Z,17.51
2018-10-11T18:06:37.272Z,17.51
2018-10-11T18:09:07.408Z,17.63
2018-10-11T18:11:37.796Z,17.60
2018-10-11T18:14:06.770Z,17.62
2018-10-11T18:16:35.151Z,17.63
2018-10-11T18:19:03.593Z,17.67
2018-10-11T18:21:31.979Z,17.63
2018-10-11T18:24:00.429Z,17.59
2018-10-11T18:26:28.809Z,17.63
2018-10-11T18:28:57.260Z,17.61
2018-10-11T18:31:25.653Z,17.57
2018-10-11T18:33:54.053Z,17.59
2018-10-11T18:36:22.526Z,17.46
2018-10-11T18:38:50.877Z,17.51
2018-10-11T18:41:19.477Z,17.52
2018-10-11T18:43:47.848Z,17.51
2018-10-11T18:46:16.261Z,17.51
2018-10-11T18:48:44.649Z,17.45
2018-10-11T18:51:13.030Z,17.46
2018-10-11T18:53:41.403Z,17.54
2018-10-11T18:56:09.953Z,17.57
2018-10-11T18:58:38.342Z,17.40
2018-10-11T19:01:06.730Z,17.49
2018-10-11T19:03:36.231Z,17.50
2018-10-11T19:06:05.726Z,17.44
2018-10-11T19:08:34.089Z,17.43
2018-10-11T19:11:02.476Z,17.46
2018-10-11T19:13:32.905Z,17.38
2018-10-11T19:16:02.375Z,17.32
2018-10-11T19:18:34.060Z,17.33
2018-10-11T19:21:04.321Z,17.34
2018-10-11T19:23:32.725Z,17.26
2018-10-11T19:26:01.132Z,17.29
2018-10-11T19:28:29.743Z,17.30
2018-10-11T19:31:00.852Z,17.30
2018-10-11T19:33:29.248Z,17.33
2018-10-11T19:35:57.612Z,17.27
2018-10-11T19:38:26.997Z,17.23
2018-10-11T19:40:55.393Z,17.15
2018-10-11T19:43:23.756Z,17.10
2018-10-11T19:45:52.728Z,17.12
2018-10-11T19:48:22.216Z,17.13
2018-10-11T19:50:50.737Z,17.07
2018-10-11T19:53:19.170Z,16.93
2018-10-11T19:55:47.557Z,16.89
2018-10-11T19:58:16.492Z,16.81
2018-10-11T20:00:44.926Z,16.84
2018-10-11T20:03:13.289Z,16.79
2018-10-11T20:05:42.752Z,16.77
2018-10-11T20:08:11.246Z,16.74
2018-10-11T20:10:39.545Z,16.65
2018-10-11T20:13:07.964Z,16.72
2018-10-11T20:15:37.445Z,16.67
2018-10-11T20:18:05.925Z,16.68
2018-10-11T20:20:34.361Z,16.65
2018-10-11T20:23:02.821Z,16.58
2018-10-11T20:25:31.194Z,16.52
2018-10-11T20:28:00.573Z,16.45
2018-10-11T20:30:29.054Z,16.34
2018-10-11T20:32:57.496Z,16.33
2018-10-11T20:35:25.838Z,16.27
2018-10-11T20:37:55.357Z,16.19
2018-10-11T20:40:23.721Z,16.15
2018-10-11T20:42:52.087Z,16.08
2018-10-11T20:45:20.548Z,16.05
2018-10-11T20:47:48.960Z,16.04
2018-10-11T20:50:17.333Z,16.01
2018-10-11T20:52:45.731Z,15.97
2018-10-11T20:55:14.148Z,15.96
2018-10-11T20:57:42.501Z,15.99
2018-10-11T21:00:11.193Z,15.94
2018-10-11T21:02:39.617Z,15.91
2018-10-11T21:05:08.032Z,15.88
2018-10-11T21:07:36.545Z,15.86
2018-10-11T21:10:06.690Z,15.74
2018-10-11T21:12:35.080Z,15.71
2018-10-11T21:15:03.598Z,15.67
2018-10-11T21:17:32.017Z,15.62
2018-10-11T21:20:00.430Z,15.58
2018-10-11T21:22:28.805Z,15.82
2018-10-11T21:24:57.165Z,15.68
2018-10-11T21:27:25.549Z,15.62
2018-10-11T21:29:54.065Z,15.54
2018-10-11T21:32:22.429Z,15.47
2018-10-11T21:34:50.800Z,15.50
2018-10-11T21:37:19.173Z,15.55
2018-10-11T21:39:47.535Z,15.51
2018-10-11T21:42:15.965Z,15.49
2018-10-11T21:44:45.366Z,15.47
2018-10-11T21:47:13.789Z,15.44
2018-10-11T21:49:42.176Z,15.44
2018-10-11T21:52:10.801Z,15.44
2018-10-11T21:54:39.172Z,15.43
2018-10-11T21:57:07.780Z,15.42
2018-10-11T21:59:36.185Z,15.38
2018-10-11T22:02:04.529Z,15.39
2018-10-11T22:04:32.992Z,15.36
2018-10-11T22:07:01.412Z,15.35
2018-10-11T22:09:29.826Z,15.29
2018-10-11T22:11:58.232Z,15.27
2018-10-11T22:14:26.691Z,15.23
2018-10-11T22:16:55.481Z,15.18
2018-10-11T22:19:24.385Z,15.21
2018-10-11T22:21:52.954Z,15.22
2018-10-11T22:24:21.320Z,15.12
2018-10-11T22:26:51.646Z,15.08
2018-10-11T22:29:20.061Z,15.05
2018-10-11T22:31:49.539Z,15.02
2018-10-11T22:34:17.961Z,15.02
2018-10-11T22:36:46.421Z,15.02
2018-10-11T22:39:14.757Z,14.96
2018-10-11T22:41:44.173Z,14.99
2018-10-11T22:44:12.983Z,15.03
2018-10-11T22:46:42.073Z,15.04
2018-10-11T22:49:10.971Z,15.03
2018-10-11T22:51:39.913Z,15.05
2018-10-11T22:54:09.024Z,15.12
2018-10-11T22:56:37.413Z,15.17
2018-10-11T22:59:06.096Z,15.17
2018-10-11T23:01:34.496Z,15.27
2018-10-11T23:04:02.937Z,15.36
2018-10-11T23:06:31.386Z,15.40
2018-10-11T23:08:59.800Z,15.38
2018-10-11T23:11:28.227Z,15.43
2018-10-11T23:13:56.765Z,15.41
2018-10-11T23:16:25.424Z,15.36
2018-10-11T23:18:53.814Z,15.41
2018-10-11T23:21:22.228Z,15.33
2018-10-11T23:23:50.653Z,15.43
2018-10-11T23:26:19.064Z,15.38
2018-10-11T23:28:47.468Z,15.40
2018-10-11T23:31:15.848Z,15.47
2018-10-11T23:33:44.304Z,15.49
2018-10-11T23:36:13.789Z,15.49
2018-10-11T23:38:42.176Z,15.40
2018-10-11T23:41:10.537Z,15.40
2018-10-11T23:43:39.143Z,15.32
2018-10-11T23:46:08.648Z,15.38
2018-10-11T23:48:36.994Z,15.33
2018-10-11T23:51:05.401Z,15.32
2018-10-11T23:53:33.860Z,15.30
2018-10-11T23:56:02.742Z,15.43
2018-10-11T23:58:31.097Z,15.24
